Time;durP1;ratioP1;P1;durP2;ratioP2;P2;SDS_P1;SDS_P2;PMS_P1;PMS_P2;Temp;Humidity;BMP_temperature;BMP_pressure;BME280_temperature;BME280_humidity;BME280_pressure;Samples;Min_cycle;Max_cycle;Signal;HPM_P1;HPM_P2
2021/11/22 00:01:52;;;;;;;0.93;0.93;;;6.90;97.20;;;;;;4992526;28;20038;-77
2021/11/22 00:04:18;;;;;;;0.98;0.60;;;6.90;97.20;;;;;;4993170;28;20045;-77
2021/11/22 00:06:44;;;;;;;1.58;0.60;;;6.90;97.20;;;;;;4992945;28;20060;-77
2021/11/22 00:09:10;;;;;;;3.08;1.10;;;6.80;97.20;;;;;;4991247;28;20038;-77
2021/11/22 00:11:35;;;;;;;2.30;1.13;;;6.80;97.20;;;;;;4992812;28;20097;-77
2021/11/22 00:14:01;;;;;;;1.38;0.98;;;6.80;97.20;;;;;;5024111;28;20102;-77
2021/11/22 00:16:27;;;;;;;2.53;1.02;;;6.80;97.20;;;;;;5024479;28;20058;-77
2021/11/22 00:18:54;;;;;;;1.27;0.93;;;6.80;97.20;;;;;;4992542;28;20030;-78
2021/11/22 00:21:20;;;;;;;2.85;1.23;;;6.80;97.20;;;;;;5024614;28;20018;-78
2021/11/22 00:23:46;;;;;;;1.60;1.00;;;6.80;97.30;;;;;;4992547;28;20481;-77
2021/11/22 00:26:11;;;;;;;4.88;1.27;;;6.80;97.30;;;;;;4991280;28;20057;-77
2021/11/22 00:28:37;;;;;;;1.10;0.80;;;6.80;97.30;;;;;;4992653;28;20387;-78
2021/11/22 00:31:03;;;;;;;1.88;0.88;;;6.80;97.30;;;;;;4994106;28;20457;-78
2021/11/22 00:33:28;;;;;;;4.05;1.20;;;6.80;97.30;;;;;;4995788;28;20023;-78
2021/11/22 00:35:54;;;;;;;1.70;0.70;;;6.70;97.50;;;;;;4996571;28;20140;-78
2021/11/22 00:38:20;;;;;;;1.85;1.00;;;6.70;97.30;;;;;;4996973;28;20014;-78
2021/11/22 00:40:47;;;;;;;1.60;0.85;;;6.70;97.30;;;;;;4996484;28;20153;-78
2021/11/22 00:43:12;;;;;;;2.63;0.75;;;6.70;97.30;;;;;;4996129;28;20073;-78
2021/11/22 00:45:38;;;;;;;1.42;1.23;;;6.60;97.30;;;;;;4996791;28;20438;-79
2021/11/22 00:48:06;;;;;;;2.72;0.85;;;6.70;97.30;;;;;;4995042;28;20014;-78
2021/11/22 00:50:35;;;;;;;2.28;1.00;;;6.70;97.30;;;;;;4995038;28;20048;-78
2021/11/22 00:53:02;;;;;;;1.70;0.98;;;6.70;97.30;;;;;;4994977;28;20023;-78
2021/11/22 00:55:27;;;;;;;3.42;0.85;;;6.70;97.40;;;;;;4996668;28;20049;-78
2021/11/22 00:57:53;;;;;;;2.33;0.90;;;6.60;97.30;;;;;;4994854;28;20054;-79
2021/11/22 01:00:20;;;;;;;2.83;1.08;;;6.60;97.30;;;;;;4995018;28;20022;-78
2021/11/22 01:02:46;;;;;;;1.95;0.75;;;6.60;97.40;;;;;;4996364;28;20026;-79
2021/11/22 01:05:12;;;;;;;4.05;0.68;;;6.60;97.40;;;;;;4995803;28;20062;-78
2021/11/22 01:07:38;;;;;;;4.95;0.75;;;6.60;97.40;;;;;;4996344;28;20068;-78
2021/11/22 01:10:06;;;;;;;1.33;0.80;;;6.60;97.40;;;;;;4994583;28;20121;-78
2021/11/22 01:12:32;;;;;;;1.55;0.85;;;6.60;97.40;;;;;;4994621;28;20029;-79
2021/11/22 01:14:59;;;;;;;3.50;1.00;;;6.50;97.40;;;;;;4994522;28;20022;-79
2021/11/22 01:17:26;;;;;;;1.67;1.08;;;6.60;97.40;;;;;;4995125;28;20026;-78
2021/11/22 01:19:53;;;;;;;2.03;1.15;;;6.50;97.40;;;;;;4994495;28;20031;-79
2021/11/22 01:22:20;;;;;;;1.05;0.73;;;6.50;97.40;;;;;;4994716;28;20438;-78
2021/11/22 01:24:46;;;;;;;1.27;0.90;;;6.60;97.40;;;;;;4995951;28;20034;-78
2021/11/22 01:27:12;;;;;;;0.68;0.60;;;6.50;97.40;;;;;;4994334;28;20030;-78
2021/11/22 01:29:38;;;;;;;1.35;0.93;;;6.50;97.40;;;;;;4995896;28;20045;-78
2021/11/22 01:32:04;;;;;;;0.82;0.65;;;6.50;97.40;;;;;;4995481;28;20033;-78
2021/11/22 01:34:30;;;;;;;1.38;0.90;;;6.50;97.40;;;;;;4996208;28;20057;-78
2021/11/22 01:36:55;;;;;;;1.35;0.70;;;6.50;97.40;;;;;;4994012;28;20058;-78
2021/11/22 01:39:21;;;;;;;2.38;0.75;;;6.50;97.40;;;;;;4996028;28;20110;-78
2021/11/22 01:41:47;;;;;;;1.00;0.52;;;6.50;97.40;;;;;;4994586;28;20081;-78
2021/11/22 01:44:13;;;;;;;1.75;0.95;;;6.50;97.40;;;;;;4995053;28;20292;-78
2021/11/22 01:46:39;;;;;;;3.28;1.10;;;6.50;97.40;;;;;;4995624;28;20026;-78
2021/11/22 01:49:05;;;;;;;0.63;0.63;;;6.50;97.40;;;;;;4995088;28;20030;-79
2021/11/22 01:51:32;;;;;;;3.33;0.75;;;6.50;97.40;;;;;;4994349;28;20026;-77
2021/11/22 01:53:58;;;;;;;1.08;0.63;;;6.50;97.40;;;;;;4995053;28;20053;-78
2021/11/22 01:56:25;;;;;;;1.92;0.88;;;6.50;97.40;;;;;;4995792;28;20486;-78
2021/11/22 01:58:51;;;;;;;1.75;0.75;;;6.50;97.40;;;;;;4995171;28;20459;-78
2021/11/22 02:01:17;;;;;;;5.03;1.10;;;6.50;97.40;;;;;;4993762;28;20049;-78
2021/11/22 02:03:43;;;;;;;2.17;0.93;;;6.50;97.40;;;;;;4994128;28;20023;-77
2021/11/22 02:06:09;;;;;;;1.50;0.85;;;6.50;97.40;;;;;;4994256;28;20046;-77
2021/11/22 02:08:35;;;;;;;2.80;1.02;;;6.50;97.40;;;;;;4995229;28;20022;-77
2021/11/22 02:11:01;;;;;;;1.88;0.98;;;6.50;97.40;;;;;;4993466;28;20038;-78
2021/11/22 02:13:27;;;;;;;1.10;0.90;;;6.50;97.40;;;;;;4995211;28;20142;-77
2021/11/22 02:15:53;;;;;;;1.38;1.00;;;6.40;97.40;;;;;;4994951;28;20491;-77
2021/11/22 02:18:19;;;;;;;1.63;0.75;;;6.40;97.50;;;;;;4993432;28;20081;-77
2021/11/22 02:20:46;;;;;;;2.60;0.77;;;6.40;97.50;;;;;;4993856;28;20113;-78
2021/11/22 02:23:12;;;;;;;6.30;0.90;;;6.40;97.50;;;;;;4994855;28;20034;-77
2021/11/22 02:25:41;;;;;;;0.90;0.70;;;6.40;97.50;;;;;;4993743;28;20466;-77
2021/11/22 02:28:09;;;;;;;2.90;0.95;;;6.40;97.40;;;;;;4994599;28;20037;-77
2021/11/22 02:30:38;;;;;;;1.10;0.77;;;6.40;97.40;;;;;;4994845;28;20045;-77
2021/11/22 02:33:08;;;;;;;3.35;1.42;;;6.30;97.50;;;;;;4994637;28;20037;-77
2021/11/22 02:35:40;;;;;;;1.25;0.90;;;6.30;97.40;;;;;;4994841;28;20073;-77
2021/11/22 02:38:06;;;;;;;1.85;0.85;;;6.30;97.40;;;;;;4994344;28;20058;-77
2021/11/22 02:40:32;;;;;;;2.15;0.93;;;6.30;97.40;;;;;;4994654;28;20070;-77
2021/11/22 02:42:59;;;;;;;0.73;0.70;;;6.30;97.40;;;;;;4993287;28;20137;-78
2021/11/22 02:45:25;;;;;;;1.85;1.08;;;6.30;97.40;;;;;;4994645;28;20085;-77
2021/11/22 02:47:51;;;;;;;1.15;0.75;;;6.30;97.40;;;;;;4994666;28;20030;-77
2021/11/22 02:50:19;;;;;;;1.02;0.85;;;6.30;97.40;;;;;;4992736;28;20081;-77
2021/11/22 02:52:46;;;;;;;0.80;0.80;;;6.30;97.50;;;;;;4992609;28;20057;-77
2021/11/22 02:55:14;;;;;;;1.38;0.75;;;6.20;97.50;;;;;;4992665;28;20030;-78
2021/11/22 02:57:40;;;;;;;2.38;0.88;;;6.20;97.50;;;;;;4994426;28;20073;-77
2021/11/22 03:00:12;;;;;;;3.33;0.88;;;6.20;97.50;;;;;;4992505;28;20478;-78
2021/11/22 03:02:38;;;;;;;1.10;0.85;;;6.20;97.60;;;;;;4994357;28;20030;-78
2021/11/22 03:05:04;;;;;;;4.40;0.80;;;6.20;97.60;;;;;;4991961;28;20033;-78
2021/11/22 03:07:30;;;;;;;2.30;1.15;;;6.20;97.60;;;;;;5026042;28;20026;-78
2021/11/22 03:09:56;;;;;;;2.13;0.80;;;6.20;97.60;;;;;;4994120;28;20165;-77
2021/11/22 03:12:22;;;;;;;3.22;0.77;;;6.20;97.60;;;;;;4993686;28;20025;-78
2021/11/22 03:14:48;;;;;;;0.82;0.80;;;6.20;97.50;;;;;;4992906;28;20031;-78
2021/11/22 03:17:14;;;;;;;2.90;0.75;;;6.20;97.50;;;;;;4993395;28;20478;-78
2021/11/22 03:19:40;;;;;;;2.47;0.80;;;6.20;97.50;;;;;;4994249;28;20034;-78
2021/11/22 03:22:06;;;;;;;2.67;1.02;;;6.10;97.50;;;;;;4994431;28;20026;-77
2021/11/22 03:24:32;;;;;;;0.73;0.73;;;6.10;97.50;;;;;;4999855;28;20026;-78
2021/11/22 03:26:57;;;;;;;1.95;0.90;;;6.10;97.60;;;;;;4998127;28;20109;-78
2021/11/22 03:29:23;;;;;;;1.23;0.82;;;6.10;97.60;;;;;;4999229;28;20475;-78
2021/11/22 03:31:49;;;;;;;1.08;0.77;;;6.10;97.50;;;;;;4995638;28;20022;-77
2021/11/22 03:34:15;;;;;;;4.38;0.88;;;6.10;97.50;;;;;;5024524;28;20356;-78
2021/11/22 03:36:41;;;;;;;2.28;0.77;;;6.10;97.50;;;;;;4993587;28;20101;-78
2021/11/22 03:39:18;;;;;;;0.52;0.52;;;6.10;97.50;;;;;;4993166;28;20027;-77
2021/11/22 03:41:44;;;;;;;1.17;0.70;;;6.10;97.50;;;;;;4993537;28;20026;-77
2021/11/22 03:44:10;;;;;;;1.30;0.82;;;6.00;97.50;;;;;;4991802;28;20490;-77
2021/11/22 03:46:47;;;;;;;0.90;0.68;;;6.00;97.60;;;;;;5025224;28;20122;-77
2021/11/22 03:49:13;;;;;;;3.10;0.95;;;6.00;97.60;;;;;;4992943;28;20113;-77
2021/11/22 03:51:40;;;;;;;3.17;1.05;;;6.00;97.60;;;;;;4993095;28;20027;-78
2021/11/22 03:54:05;;;;;;;2.97;0.70;;;6.00;97.60;;;;;;4991700;28;20030;-78
2021/11/22 03:56:31;;;;;;;1.00;0.52;;;6.00;97.60;;;;;;5024903;28;20089;-77
2021/11/22 03:58:57;;;;;;;0.65;0.65;;;6.00;97.60;;;;;;4992007;28;20028;-77
2021/11/22 04:01:23;;;;;;;1.95;1.10;;;6.00;97.60;;;;;;4991504;28;20121;-77
2021/11/22 04:03:49;;;;;;;3.92;1.00;;;5.90;97.60;;;;;;4993061;28;20467;-77
2021/11/22 04:06:15;;;;;;;1.55;0.80;;;6.00;97.50;;;;;;4992168;28;20510;-77
2021/11/22 04:08:42;;;;;;;2.30;0.77;;;6.00;97.60;;;;;;4993218;28;20034;-78
2021/11/22 04:11:08;;;;;;;1.52;0.80;;;5.90;97.60;;;;;;4991372;28;20044;-77
2021/11/22 04:13:34;;;;;;;2.10;1.00;;;5.90;97.60;;;;;;4993174;28;20097;-77
2021/11/22 04:16:01;;;;;;;3.03;0.80;;;5.90;97.60;;;;;;4991990;28;20130;-77
2021/11/22 04:18:28;;;;;;;0.88;0.63;;;5.90;97.60;;;;;;4992522;28;20027;-78
2021/11/22 04:20:53;;;;;;;0.77;0.77;;;5.80;97.60;;;;;;4993375;28;20125;-77
2021/11/22 04:23:19;;;;;;;1.38;0.75;;;5.80;97.60;;;;;;4992382;28;20054;-77
2021/11/22 04:25:45;;;;;;;0.70;0.70;;;5.80;97.90;;;;;;4991760;28;20033;-77
2021/11/22 04:28:11;;;;;;;1.75;0.93;;;5.80;97.60;;;;;;4991262;28;20062;-78
2021/11/22 04:30:38;;;;;;;1.30;0.80;;;5.80;97.70;;;;;;4991490;28;20493;-77
2021/11/22 04:33:04;;;;;;;1.08;0.63;;;5.80;97.70;;;;;;4993314;28;20070;-78
2021/11/22 04:35:30;;;;;;;2.40;0.73;;;5.80;97.60;;;;;;4992972;28;20046;-77
2021/11/22 04:37:56;;;;;;;2.90;1.00;;;5.80;97.60;;;;;;4992889;28;20030;-76
2021/11/22 04:40:22;;;;;;;2.90;0.98;;;5.80;97.60;;;;;;4990898;28;20107;-76
2021/11/22 04:42:49;;;;;;;1.00;0.80;;;5.80;97.60;;;;;;4991133;28;20105;-79
2021/11/22 04:45:21;;;;;;;1.02;0.95;;;5.80;97.70;;;;;;4992173;28;20022;-77
2021/11/22 04:47:48;;;;;;;1.02;0.77;;;5.80;97.60;;;;;;4992678;28;20014;-77
2021/11/22 04:50:15;;;;;;;3.45;1.00;;;5.80;97.60;;;;;;4992155;28;20038;-78
2021/11/22 04:52:44;;;;;;;1.90;0.75;;;5.80;97.60;;;;;;4991289;28;20030;-78
2021/11/22 04:55:11;;;;;;;1.63;0.95;;;5.80;97.60;;;;;;4992135;28;20462;-77
2021/11/22 04:57:37;;;;;;;2.08;0.85;;;5.80;97.60;;;;;;4992470;28;20077;-77
2021/11/22 05:00:07;;;;;;;0.73;0.68;;;5.80;97.60;;;;;;4991541;28;20426;-77
2021/11/22 05:02:33;;;;;;;1.25;0.95;;;5.80;97.60;;;;;;4992358;28;20027;-78
2021/11/22 05:04:58;;;;;;;1.42;0.95;;;5.80;97.60;;;;;;5024056;28;20572;-77
2021/11/22 05:07:24;;;;;;;2.58;1.00;;;5.70;97.60;;;;;;4993219;28;20050;-79
2021/11/22 05:09:50;;;;;;;1.98;0.93;;;5.80;97.60;;;;;;4992246;28;20093;-79
2021/11/22 05:12:16;;;;;;;2.15;0.90;;;5.70;97.60;;;;;;4990030;28;20036;-78
2021/11/22 05:14:42;;;;;;;1.13;0.70;;;5.70;97.60;;;;;;4990872;28;20018;-79
2021/11/22 05:17:08;;;;;;;1.52;1.02;;;5.70;97.60;;;;;;4994932;28;20049;-78
2021/11/22 05:19:34;;;;;;;1.35;0.98;;;5.80;97.70;;;;;;4994163;28;20027;-78
2021/11/22 05:22:02;;;;;;;1.58;0.85;;;5.70;97.60;;;;;;4994665;28;20027;-77
2021/11/22 05:24:29;;;;;;;1.15;0.80;;;5.70;97.60;;;;;;4994254;28;20833;-78
2021/11/22 05:26:56;;;;;;;4.20;0.80;;;5.70;97.60;;;;;;4994696;28;20023;-78
2021/11/22 05:29:22;;;;;;;2.55;1.05;;;5.70;97.60;;;;;;4995453;28;20030;-78
2021/11/22 05:31:48;;;;;;;4.40;0.90;;;5.70;97.60;;;;;;4994539;28;20022;-78
2021/11/22 05:34:17;;;;;;;0.70;0.68;;;5.70;97.60;;;;;;4994125;28;20027;-78
2021/11/22 05:36:43;;;;;;;1.63;1.00;;;5.70;97.60;;;;;;4995851;28;20042;-78
2021/11/22 05:39:08;;;;;;;3.00;1.05;;;5.70;97.60;;;;;;4995791;28;20088;-79
2021/11/22 05:41:34;;;;;;;2.35;0.95;;;5.70;97.60;;;;;;4993824;28;20034;-78
2021/11/22 05:44:00;;;;;;;0.95;0.82;;;5.70;97.60;;;;;;4995765;28;20026;-81
2021/11/22 05:46:25;;;;;;;1.30;0.90;;;5.70;97.60;;;;;;4995405;28;20462;-78
2021/11/22 05:48:51;;;;;;;1.50;1.30;;;5.60;97.60;;;;;;4995756;28;20023;-79
2021/11/22 05:51:18;;;;;;;1.48;1.00;;;5.60;97.60;;;;;;4995027;28;20430;-78
2021/11/22 05:53:48;;;;;;;1.80;1.00;;;5.60;97.60;;;;;;4995493;28;20050;-79
2021/11/22 05:56:15;;;;;;;2.20;0.90;;;5.60;97.60;;;;;;4994821;28;20030;-78
2021/11/22 05:58:42;;;;;;;2.55;1.23;;;5.60;97.60;;;;;;4992336;28;20137;-76
2021/11/22 06:01:08;;;;;;;1.52;0.95;;;5.60;97.70;;;;;;5008053;28;20391;-76
2021/11/22 06:03:34;;;;;;;2.42;0.70;;;5.60;97.70;;;;;;4991413;28;20022;-76
2021/11/22 06:06:00;;;;;;;6.13;0.95;;;5.60;97.70;;;;;;4992983;28;20526;-76
2021/11/22 06:08:26;;;;;;;1.98;0.88;;;5.70;97.70;;;;;;4992746;28;20038;-77
2021/11/22 06:10:52;;;;;;;1.00;0.80;;;5.60;97.70;;;;;;4993848;28;20406;-77
2021/11/22 06:13:18;;;;;;;3.13;0.77;;;5.60;97.70;;;;;;5009717;28;20026;-77
2021/11/22 06:15:46;;;;;;;1.80;0.70;;;5.60;97.70;;;;;;5010136;28;20085;-76
2021/11/22 06:18:12;;;;;;;1.80;1.00;;;5.50;97.70;;;;;;4994702;28;20042;-76
2021/11/22 06:20:38;;;;;;;2.88;1.00;;;5.50;97.70;;;;;;4992127;28;20046;-78
2021/11/22 06:23:04;;;;;;;1.45;1.00;;;5.50;97.70;;;;;;4993899;28;20094;-78
2021/11/22 06:25:30;;;;;;;2.67;0.90;;;5.50;97.70;;;;;;5025890;28;20064;-78
2021/11/22 06:27:56;;;;;;;2.47;0.95;;;5.50;97.70;;;;;;4993044;28;20034;-78
2021/11/22 06:30:22;;;;;;;0.90;0.90;;;5.50;97.70;;;;;;4994190;28;20031;-77
2021/11/22 06:32:48;;;;;;;1.33;1.00;;;5.50;97.70;;;;;;4993512;28;20022;-77
2021/11/22 06:35:17;;;;;;;1.77;0.80;;;5.40;97.70;;;;;;4993992;28;20383;-80
2021/11/22 06:37:43;;;;;;;1.80;0.93;;;5.40;97.70;;;;;;4994712;28;20018;-77
2021/11/22 06:40:10;;;;;;;1.00;0.80;;;5.40;97.70;;;;;;4994288;28;20486;-77
2021/11/22 06:42:36;;;;;;;1.70;1.13;;;5.40;97.70;;;;;;4994146;28;20046;-77
2021/11/22 06:45:04;;;;;;;1.50;0.90;;;5.40;97.60;;;;;;4994897;28;20033;-77
2021/11/22 06:47:29;;;;;;;2.10;1.00;;;5.40;97.70;;;;;;4992798;28;20378;-78
2021/11/22 06:49:55;;;;;;;1.30;1.00;;;5.40;97.70;;;;;;4994425;28;20054;-79
2021/11/22 06:52:22;;;;;;;2.25;0.90;;;5.40;97.70;;;;;;4993983;28;20384;-79
2021/11/22 06:54:49;;;;;;;3.80;1.05;;;5.40;97.70;;;;;;5009450;28;20030;-79
2021/11/22 06:57:15;;;;;;;4.55;1.08;;;5.40;97.70;;;;;;4994433;28;20027;-78
2021/11/22 06:59:42;;;;;;;1.63;1.00;;;5.30;97.70;;;;;;4994577;28;20040;-78
2021/11/22 07:02:16;;;;;;;1.80;0.90;;;5.40;97.70;;;;;;4993930;28;20025;-77
2021/11/22 07:04:43;;;;;;;1.77;1.13;;;5.40;97.70;;;;;;4994730;28;20019;-77
2021/11/22 07:07:10;;;;;;;2.38;1.05;;;5.40;97.70;;;;;;4993604;28;20050;-79
2021/11/22 07:09:36;;;;;;;1.35;0.80;;;5.40;97.70;;;;;;4992300;28;20347;-77
2021/11/22 07:12:03;;;;;;;1.85;1.10;;;5.40;97.60;;;;;;4993942;28;20026;-77
2021/11/22 07:14:29;;;;;;;2.13;0.82;;;5.30;97.60;;;;;;4993564;28;20026;-77
2021/11/22 07:16:55;;;;;;;2.30;1.00;;;5.30;97.60;;;;;;4994241;28;20141;-78
2021/11/22 07:19:21;;;;;;;2.15;0.80;;;5.30;97.60;;;;;;4993332;28;20030;-78
2021/11/22 07:21:47;;;;;;;3.50;1.00;;;5.30;97.70;;;;;;4993741;28;20101;-78
2021/11/22 07:24:13;;;;;;;3.22;0.90;;;5.30;97.70;;;;;;4993751;28;20029;-77
2021/11/22 07:26:39;;;;;;;2.08;1.10;;;5.40;97.70;;;;;;5008314;28;20018;-77
2021/11/22 07:29:05;;;;;;;2.80;0.73;;;5.40;97.60;;;;;;4993401;28;20149;-77
2021/11/22 07:31:31;;;;;;;2.33;0.98;;;5.40;97.60;;;;;;4991943;28;20406;-77
2021/11/22 07:33:58;;;;;;;2.03;1.40;;;5.40;97.60;;;;;;4992356;28;20105;-77
2021/11/22 07:36:24;;;;;;;3.83;0.95;;;5.40;97.50;;;;;;4991821;28;20026;-77
2021/11/22 07:38:50;;;;;;;3.65;0.80;;;5.40;97.50;;;;;;4992908;28;20037;-77
2021/11/22 07:41:16;;;;;;;1.95;1.00;;;5.40;97.50;;;;;;4992940;28;20053;-78
2021/11/22 07:43:42;;;;;;;3.35;0.93;;;5.40;97.50;;;;;;4991768;28;20458;-78
2021/11/22 07:46:08;;;;;;;1.77;0.85;;;5.40;97.40;;;;;;4993091;28;20026;-77
2021/11/22 07:48:34;;;;;;;2.88;0.82;;;5.40;97.50;;;;;;4993344;28;20098;-77
2021/11/22 07:51:02;;;;;;;2.92;0.90;;;5.50;97.50;;;;;;4993032;28;20039;-77
2021/11/22 07:53:28;;;;;;;2.67;0.80;;;5.50;97.50;;;;;;4991347;28;20022;-78
2021/11/22 07:55:54;;;;;;;1.30;0.90;;;5.50;97.40;;;;;;4993090;28;20097;-77
2021/11/22 07:58:19;;;;;;;1.35;0.82;;;5.50;97.40;;;;;;4992831;28;20375;-79
2021/11/22 08:00:45;;;;;;;4.55;1.00;;;5.60;97.40;;;;;;4993118;28;20034;-76
2021/11/22 08:03:11;;;;;;;0.93;0.80;;;5.60;97.40;;;;;;4993147;28;20101;-77
2021/11/22 08:05:37;;;;;;;2.40;1.00;;;5.60;97.40;;;;;;4992404;28;20113;-77
2021/11/22 08:08:04;;;;;;;3.95;1.05;;;5.60;97.40;;;;;;4993221;28;20022;-76
2021/11/22 08:10:31;;;;;;;2.45;0.90;;;5.60;97.40;;;;;;4991274;28;20061;-76
2021/11/22 08:13:03;;;;;;;1.20;0.95;;;5.60;97.40;;;;;;4993105;28;20022;-77
2021/11/22 08:15:31;;;;;;;2.40;1.08;;;5.60;97.40;;;;;;4992471;28;20093;-77
2021/11/22 08:17:59;;;;;;;4.95;1.85;;;5.60;97.40;;;;;;4993243;28;20030;-77
2021/11/22 08:20:25;;;;;;;3.90;1.00;;;5.70;97.40;;;;;;4992516;28;20161;-78
2021/11/22 08:22:52;;;;;;;2.33;1.10;;;5.70;97.30;;;;;;5007897;28;20117;-77
2021/11/22 08:25:20;;;;;;;1.13;0.80;;;5.70;97.30;;;;;;4991552;28;20023;-77
2021/11/22 08:27:47;;;;;;;5.07;1.10;;;5.70;97.30;;;;;;5007621;28;20026;-78
2021/11/22 08:30:18;;;;;;;1.73;0.88;;;5.80;97.30;;;;;;5024439;28;20121;-76
2021/11/22 08:32:45;;;;;;;3.28;1.15;;;5.80;97.20;;;;;;4992427;28;20026;-77
2021/11/22 08:35:12;;;;;;;1.17;0.88;;;5.80;97.20;;;;;;4993059;28;20030;-77
2021/11/22 08:37:39;;;;;;;1.30;0.88;;;5.80;97.20;;;;;;4993215;28;20030;-77
2021/11/22 08:40:08;;;;;;;4.78;1.25;;;5.80;97.20;;;;;;4992055;28;20477;-77
2021/11/22 08:42:34;;;;;;;1.63;0.88;;;5.90;97.20;;;;;;4992593;28;20030;-77
2021/11/22 08:45:00;;;;;;;2.88;1.10;;;5.90;97.20;;;;;;4991391;28;20545;-77
2021/11/22 08:47:27;;;;;;;1.42;1.33;;;5.90;97.10;;;;;;4990964;28;20026;-78
2021/11/22 08:49:53;;;;;;;0.95;0.90;;;5.90;97.10;;;;;;4992908;28;20089;-77
2021/11/22 08:52:19;;;;;;;1.60;1.45;;;5.90;97.10;;;;;;4996289;28;20415;-77
2021/11/22 08:54:45;;;;;;;1.88;1.13;;;5.90;97.10;;;;;;4996469;28;20053;-77
2021/11/22 08:57:11;;;;;;;1.38;0.85;;;6.00;97.10;;;;;;5028158;28;20022;-77
2021/11/22 08:59:38;;;;;;;1.45;0.80;;;6.00;97.10;;;;;;4994684;28;20026;-78
2021/11/22 09:02:04;;;;;;;1.58;0.93;;;6.00;97.10;;;;;;4995252;28;20540;-77
2021/11/22 09:04:30;;;;;;;0.73;0.73;;;6.00;97.10;;;;;;4994770;28;20133;-78
2021/11/22 09:06:57;;;;;;;1.98;0.98;;;6.10;97.10;;;;;;4996437;28;20468;-78
2021/11/22 09:09:22;;;;;;;1.95;1.02;;;6.10;97.00;;;;;;4996240;28;20022;-77
2021/11/22 09:11:48;;;;;;;3.35;0.80;;;6.10;97.00;;;;;;4995763;28;20451;-78
2021/11/22 09:14:14;;;;;;;2.85;1.08;;;6.20;97.00;;;;;;4996033;28;20416;-78
2021/11/22 09:16:40;;;;;;;1.42;0.80;;;6.20;97.00;;;;;;4994408;28;20113;-78
2021/11/22 09:19:06;;;;;;;2.38;1.02;;;6.20;97.00;;;;;;4995989;28;20033;-78
2021/11/22 09:21:33;;;;;;;1.17;0.98;;;6.30;97.00;;;;;;4994367;28;20018;-78
2021/11/22 09:24:00;;;;;;;0.70;0.68;;;6.30;97.00;;;;;;4995754;28;20368;-79
2021/11/22 09:26:26;;;;;;;0.80;0.77;;;6.30;96.90;;;;;;4996080;28;20395;-80
2021/11/22 09:28:52;;;;;;;2.20;0.98;;;6.30;96.90;;;;;;4995934;28;20026;-78
2021/11/22 09:31:18;;;;;;;1.48;0.65;;;6.40;96.90;;;;;;4995764;28;20037;-78
2021/11/22 09:33:45;;;;;;;1.65;0.85;;;6.40;96.90;;;;;;4995346;28;20034;-78
2021/11/22 09:36:11;;;;;;;5.07;1.13;;;6.40;96.90;;;;;;4995793;28;20046;-78
2021/11/22 09:38:37;;;;;;;1.08;0.90;;;6.40;96.90;;;;;;4995375;28;20030;-79
2021/11/22 09:41:04;;;;;;;2.70;0.98;;;6.50;96.80;;;;;;4994592;28;20352;-78
2021/11/22 09:43:30;;;;;;;2.25;0.73;;;6.50;96.80;;;;;;4995555;28;20038;-79
2021/11/22 09:45:56;;;;;;;2.65;1.00;;;6.50;96.80;;;;;;4995966;28;20123;-78
2021/11/22 09:48:22;;;;;;;2.55;1.08;;;6.50;96.80;;;;;;4994448;28;20019;-79
2021/11/22 09:50:47;;;;;;;2.15;0.90;;;6.60;96.80;;;;;;4995141;28;20043;-78
2021/11/22 09:53:14;;;;;;;1.38;0.75;;;6.60;96.80;;;;;;4995300;28;20100;-78
2021/11/22 09:55:40;;;;;;;4.22;1.05;;;6.60;96.80;;;;;;4995056;28;20037;-78
2021/11/22 09:58:08;;;;;;;4.10;1.13;;;6.70;96.70;;;;;;4995571;28;20031;-78
2021/11/22 10:00:38;;;;;;;1.17;0.93;;;6.70;96.70;;;;;;4993849;28;20026;-78
2021/11/22 10:03:13;;;;;;;4.50;1.20;;;6.70;96.70;;;;;;4994448;28;20022;-78
2021/11/22 10:05:40;;;;;;;0.88;0.70;;;6.80;96.70;;;;;;4994994;28;20506;-78
2021/11/22 10:08:14;;;;;;;1.25;0.77;;;6.80;96.70;;;;;;5010197;28;20050;-78
2021/11/22 10:10:45;;;;;;;2.15;1.05;;;6.80;96.70;;;;;;5026451;28;20038;-79
2021/11/22 10:13:38;;;;;;;2.15;0.90;;;6.90;96.60;;;;;;4995593;28;20057;-77
2021/11/22 10:16:07;;;;;;;3.25;0.95;;;6.90;96.60;;;;;;4996190;28;20038;-78
2021/11/22 10:18:38;;;;;;;0.85;0.73;;;7.00;96.50;;;;;;4994754;28;20029;-77
2021/11/22 10:21:09;;;;;;;2.40;0.93;;;7.00;96.50;;;;;;5016743;28;20109;-78
2021/11/22 10:23:38;;;;;;;2.83;0.80;;;7.00;96.50;;;;;;5005476;28;20420;-76
2021/11/22 10:26:04;;;;;;;2.33;0.90;;;7.10;96.50;;;;;;5006149;28;20057;-77
2021/11/22 10:28:37;;;;;;;1.27;0.70;;;7.10;96.50;;;;;;5006200;28;20033;-79
2021/11/22 10:31:06;;;;;;;2.25;0.80;;;7.10;96.40;;;;;;4995854;28;20029;-78
2021/11/22 10:33:37;;;;;;;1.17;0.80;;;7.20;96.40;;;;;;5009686;28;20026;-78
2021/11/22 10:36:11;;;;;;;2.15;0.90;;;7.30;96.30;;;;;;4993537;28;20474;-78
2021/11/22 10:38:40;;;;;;;2.60;1.10;;;7.40;96.20;;;;;;5009368;28;20027;-78
2021/11/22 10:41:14;;;;;;;6.95;2.10;;;7.50;96.10;;;;;;4994519;28;20037;-78
2021/11/22 10:43:50;;;;;;;4.95;1.58;;;7.60;96.00;;;;;;4993080;28;20023;-78
2021/11/22 10:46:26;;;;;;;3.25;0.93;;;7.60;96.00;;;;;;4994634;28;20022;-78
2021/11/22 10:48:53;;;;;;;3.50;1.00;;;7.70;95.90;;;;;;4994205;28;20052;-77
2021/11/22 10:51:27;;;;;;;1.55;0.80;;;7.80;95.80;;;;;;5009671;28;20041;-78
2021/11/22 10:54:04;;;;;;;0.57;0.57;;;7.90;95.70;;;;;;4994680;28;20027;-77
2021/11/22 10:56:38;;;;;;;2.53;1.20;;;8.00;95.60;;;;;;4993062;28;20026;-78
2021/11/22 10:59:06;;;;;;;2.17;0.88;;;8.10;95.60;;;;;;4994578;28;20113;-78
2021/11/22 11:01:39;;;;;;;1.65;0.90;;;8.20;95.50;;;;;;4994234;28;20089;-80
2021/11/22 11:04:26;;;;;;;1.70;0.90;;;8.30;95.50;;;;;;4993219;28;20080;-78
2021/11/22 11:07:11;;;;;;;2.30;0.82;;;8.40;95.30;;;;;;4993740;28;20059;-78
2021/11/22 11:09:58;;;;;;;2.10;0.70;;;8.50;95.30;;;;;;5025260;28;20034;-78
2021/11/22 11:12:25;;;;;;;0.65;0.65;;;8.60;95.20;;;;;;4992430;28;20038;-78
2021/11/22 11:14:56;;;;;;;3.58;0.98;;;8.70;95.10;;;;;;5024826;28;20481;-78
2021/11/22 11:17:30;;;;;;;2.97;0.90;;;8.80;95.00;;;;;;4994205;28;20053;-78
2021/11/22 11:19:58;;;;;;;1.02;0.70;;;8.90;94.90;;;;;;4992262;28;20412;-77
2021/11/22 11:22:26;;;;;;;1.45;0.70;;;9.10;94.80;;;;;;4992345;28;20038;-78
2021/11/22 11:24:52;;;;;;;0.85;0.70;;;9.10;94.70;;;;;;4993417;28;20026;-78
2021/11/22 11:27:18;;;;;;;0.52;0.52;;;9.20;94.60;;;;;;4993547;28;20030;-78
2021/11/22 11:29:45;;;;;;;1.35;0.60;;;9.30;94.50;;;;;;4993235;28;20034;-79
2021/11/22 11:32:11;;;;;;;0.80;0.70;;;9.30;94.30;;;;;;4993772;28;20030;-79
2021/11/22 11:34:50;;;;;;;1.00;0.80;;;9.30;94.30;;;;;;4991939;28;20061;-78
2021/11/22 11:37:37;;;;;;;0.85;0.68;;;9.30;94.20;;;;;;4993689;28;20080;-78
2021/11/22 11:40:41;;;;;;;1.67;0.70;;;9.30;94.10;;;;;;5008794;28;20027;-78
2021/11/22 11:43:45;;;;;;;1.00;0.52;;;9.20;94.10;;;;;;4999055;28;20125;-78
2021/11/22 11:46:35;;;;;;;2.80;0.90;;;9.20;94.00;;;;;;5024976;28;20467;-78
2021/11/22 11:49:05;;;;;;;0.43;0.43;;;9.10;94.00;;;;;;5008706;28;20088;-78
2021/11/22 11:51:40;;;;;;;2.30;0.70;;;9.10;94.00;;;;;;4993004;28;20295;-78
2021/11/22 11:54:12;;;;;;;2.08;0.73;;;9.10;94.00;;;;;;4993527;28;20058;-79
2021/11/22 11:56:44;;;;;;;1.98;0.60;;;9.10;94.00;;;;;;5007745;28;20069;-79
2021/11/22 11:59:13;;;;;;;1.15;0.98;;;9.10;93.90;;;;;;4993187;28;20343;-78
2021/11/22 12:01:56;;;;;;;1.23;0.70;;;9.10;93.90;;;;;;5024482;28;20027;-79
2021/11/22 12:04:22;;;;;;;1.05;0.70;;;9.10;93.80;;;;;;4991618;28;20026;-78
2021/11/22 12:06:49;;;;;;;0.65;0.60;;;9.10;93.80;;;;;;4992218;28;20196;-78
2021/11/22 12:09:38;;;;;;;0.65;0.45;;;9.10;93.70;;;;;;4993069;28;20018;-78
2021/11/22 12:12:13;;;;;;;3.35;0.90;;;9.10;93.40;;;;;;4993176;28;20037;-78
2021/11/22 12:15:04;;;;;;;1.83;0.65;;;9.10;93.40;;;;;;4992635;28;20065;-78
2021/11/22 12:17:36;;;;;;;0.93;0.75;;;9.10;93.40;;;;;;4991605;28;20023;-78
2021/11/22 12:20:24;;;;;;;1.60;0.60;;;9.20;93.40;;;;;;5007714;28;20037;-78
2021/11/22 12:22:56;;;;;;;1.42;0.43;;;9.10;93.20;;;;;;4992677;28;20080;-79
2021/11/22 12:25:43;;;;;;;4.13;0.82;;;9.10;93.20;;;;;;4992410;28;20022;-78
2021/11/22 12:28:23;;;;;;;1.30;0.60;;;9.10;93.30;;;;;;4992679;28;20383;-78
2021/11/22 12:31:08;;;;;;;2.92;0.60;;;9.10;93.20;;;;;;5007427;28;20038;-79
2021/11/22 12:33:40;;;;;;;1.35;0.80;;;9.10;93.20;;;;;;4992881;28;20093;-78
2021/11/22 12:36:06;;;;;;;1.63;0.80;;;9.00;93.30;;;;;;4991748;28;20022;-77
2021/11/22 12:38:35;;;;;;;0.80;0.80;;;8.90;93.20;;;;;;4992884;28;20026;-78
2021/11/22 12:41:07;;;;;;;1.10;0.75;;;8.90;93.20;;;;;;4992001;28;20439;-78
2021/11/22 12:43:46;;;;;;;;;;;8.90;93.20;;;;;;4993155;28;20050;-78
2021/11/22 12:46:19;;;;;;;0.98;0.93;;;8.90;93.30;;;;;;4991703;28;19969;-78
2021/11/22 12:48:47;;;;;;;0.77;0.63;;;8.80;93.20;;;;;;4991147;28;20029;-78
2021/11/22 12:51:16;;;;;;;4.65;0.93;;;8.80;93.30;;;;;;4992660;28;20085;-78
2021/11/22 12:54:04;;;;;;;4.13;0.63;;;8.80;93.20;;;;;;4992145;28;20081;-78
2021/11/22 12:56:34;;;;;;;1.48;0.80;;;8.80;93.10;;;;;;4993420;28;20028;-77
2021/11/22 12:59:18;;;;;;;1.35;0.80;;;8.80;93.10;;;;;;4992732;28;20062;-78
2021/11/22 13:01:45;;;;;;;1.42;0.60;;;8.80;93.00;;;;;;5008098;28;20022;-79
2021/11/22 13:04:42;;;;;;;2.38;1.02;;;8.80;93.10;;;;;;5008977;28;20030;-78